Time;durP1;ratioP1;P1;durP2;ratioP2;P2;SDS_P1;SDS_P2;PMS_P1;PMS_P2;Temp;Humidity;BMP_temperature;BMP_pressure;BME280_temperature;BME280_humidity;BME280_pressure;Samples;Min_cycle;Max_cycle;Signal;HPM_P1;HPM_P2
2021/08/25 04:51:06;;;;;;;8.73;4.10;;;;;;;;;;5680966;23;20059;-66
2021/08/25 04:53:33;;;;;;;12.07;4.57;;;;;;;;;;4954589;29;20050;-66
2021/08/25 04:56:00;;;;;;;6.38;4.50;;;;;;;;;;4954722;29;20439;-66
2021/08/25 04:58:28;;;;;;;7.70;4.38;;;;;;;;;;4954599;29;20043;-66
2021/08/25 05:00:55;;;;;;;10.95;4.60;;;;;;;;;;4954596;29;20071;-67
2021/08/25 05:05:57;;;;;;;7.82;4.38;;;;;;;;;;4914360;29;20040;-67
2021/08/25 05:08:27;;;;;;;10.52;4.95;;;;;;;;;;4915857;29;20050;-68
2021/08/25 05:10:54;;;;;;;10.82;4.40;;;;;;;;;;4916803;29;20056;-68
2021/08/25 05:13:22;;;;;;;5.53;4.00;;;;;;;;;;4916417;29;20377;-68
2021/08/25 05:15:49;;;;;;;6.50;3.28;;;;;;;;;;4916479;29;20079;-67
2021/08/25 05:18:17;;;;;;;8.60;3.72;;;;;;;;;;4916088;29;20060;-68
2021/08/25 05:20:44;;;;;;;7.88;4.47;;;;;;;;;;4916021;29;20522;-67
2021/08/25 05:23:11;;;;;;;10.27;3.83;;;;;;;;;;4914770;29;20047;-67
2021/08/25 05:25:40;;;;;;;7.60;5.50;;;;;;;;;;4914770;29;20055;-67
2021/08/25 05:28:07;;;;;;;9.85;4.47;;;;;;;;;;4915967;29;20040;-68
2021/08/25 05:30:34;;;;;;;9.13;5.03;;;;;;;;;;4916050;29;20444;-68
2021/08/25 05:33:02;;;;;;;10.85;4.50;;;;;;;;;;4916190;29;20524;-68
2021/08/25 05:35:29;;;;;;;7.45;5.13;;;;;;;;;;4915834;29;20043;-68
2021/08/25 05:37:56;;;;;;;8.30;4.10;;;;;;;;;;4915568;29;20488;-68
2021/08/25 05:40:23;;;;;;;7.57;3.92;;;;;;;;;;4914232;29;20397;-68
2021/08/25 05:42:52;;;;;;;8.35;4.43;;;;;;;;;;4914465;29;20052;-68
2021/08/25 05:45:19;;;;;;;8.30;3.83;;;;;;;;;;4915563;29;20048;-68
2021/08/25 05:47:47;;;;;;;10.27;3.85;;;;;;;;;;4914362;29;20044;-69
2021/08/25 05:50:14;;;;;;;7.30;3.75;;;;;;;;;;4915601;29;20428;-68
2021/08/25 05:52:42;;;;;;;5.40;3.90;;;;;;;;;;4915745;29;20130;-68
2021/08/25 05:55:09;;;;;;;4.93;3.10;;;;;;;;;;4915909;29;20123;-69
2021/08/25 05:57:41;;;;;;;10.52;3.72;;;;;;;;;;4915224;29;20119;-69
2021/08/25 06:00:11;;;;;;;7.00;3.63;;;;;;;;;;4915481;29;20404;-68
2021/08/25 06:02:38;;;;;;;6.47;3.70;;;;;;;;;;4915380;29;20052;-68
2021/08/25 06:05:05;;;;;;;6.47;3.58;;;;;;;;;;4914993;29;20524;-68
2021/08/25 06:07:33;;;;;;;5.32;3.60;;;;;;;;;;4915456;29;20528;-68
2021/08/25 06:10:01;;;;;;;5.93;3.53;;;;;;;;;;4915423;29;20044;-68
2021/08/25 06:12:28;;;;;;;10.90;4.20;;;;;;;;;;4900582;29;20062;-68
2021/08/25 06:14:56;;;;;;;8.88;3.58;;;;;;;;;;4896437;29;20053;-69
2021/08/25 06:17:24;;;;;;;5.05;3.15;;;;;;;;;;4896748;29;20052;-65
2021/08/25 06:19:52;;;;;;;6.80;3.92;;;;;;;;;;4896823;29;20067;-67
2021/08/25 06:22:19;;;;;;;4.18;3.30;;;;;;;;;;4895398;29;20056;-67
2021/08/25 06:24:47;;;;;;;8.13;5.57;;;;;;;;;;4896498;29;20417;-67
2021/08/25 06:27:14;;;;;;;5.75;3.50;;;;;;;;;;4896509;29;20451;-67
2021/08/25 06:29:41;;;;;;;8.50;4.55;;;;;;;;;;4896546;29;20416;-67
2021/08/25 06:32:08;;;;;;;7.00;5.20;;;;;;;;;;4896059;29;20048;-67
2021/08/25 06:34:37;;;;;;;6.93;4.10;;;;;;;;;;4895876;29;20052;-68
2021/08/25 06:37:05;;;;;;;8.77;4.10;;;;;;;;;;4896001;29;20048;-66
2021/08/25 06:39:32;;;;;;;10.43;4.28;;;;;;;;;;4895948;29;20059;-66
2021/08/25 06:41:59;;;;;;;5.82;4.32;;;;;;;;;;4895761;29;20084;-67
2021/08/25 06:44:27;;;;;;;5.53;3.92;;;;;;;;;;4895395;29;20055;-67
2021/08/25 06:46:54;;;;;;;6.53;4.30;;;;;;;;;;4895933;29;20062;-67
2021/08/25 06:49:21;;;;;;;8.95;4.57;;;;;;;;;;4895929;29;20043;-67
2021/08/25 06:51:51;;;;;;;6.75;4.10;;;;;;;;;;4895542;29;20151;-67
2021/08/25 06:54:21;;;;;;;6.82;4.38;;;;;;;;;;4895845;29;20131;-67
2021/08/25 06:56:48;;;;;;;5.90;4.13;;;;;;;;;;4894682;29;20196;-67
2021/08/25 06:59:16;;;;;;;7.25;4.40;;;;;;;;;;4894837;29;20064;-67
2021/08/25 07:01:44;;;;;;;6.50;4.75;;;;;;;;;;4896326;29;20057;-67
2021/08/25 07:04:11;;;;;;;7.05;4.15;;;;;;;;;;4896896;29;20062;-67
2021/08/25 07:06:38;;;;;;;7.90;4.03;;;;;;;;;;4896425;29;20517;-67
2021/08/25 07:09:07;;;;;;;7.47;4.40;;;;;;;;;;4895990;29;20040;-67
2021/08/25 07:11:35;;;;;;;6.38;3.90;;;;;;;;;;4903206;29;20044;-67
2021/08/25 07:14:02;;;;;;;10.55;4.53;;;;;;;;;;4914710;29;20492;-67
2021/08/25 07:16:33;;;;;;;6.35;4.70;;;;;;;;;;4915014;29;20419;-67
2021/08/25 07:19:01;;;;;;;9.30;4.78;;;;;;;;;;4914367;29;20044;-66
2021/08/25 07:21:28;;;;;;;8.00;4.18;;;;;;;;;;4914673;29;20051;-67
2021/08/25 07:23:55;;;;;;;7.65;4.43;;;;;;;;;;4913730;29;20052;-67
2021/08/25 07:26:24;;;;;;;5.57;4.78;;;;;;;;;;4914469;29;20048;-67
2021/08/25 07:28:52;;;;;;;6.32;4.25;;;;;;;;;;4912771;29;20056;-67
2021/08/25 07:31:19;;;;;;;7.15;4.38;;;;;;;;;;4912569;29;20044;-67
2021/08/25 07:33:46;;;;;;;10.73;4.78;;;;;;;;;;4914284;29;20048;-67
2021/08/25 07:36:14;;;;;;;5.35;4.03;;;;;;;;;;4912837;29;20270;-67
2021/08/25 07:38:41;;;;;;;8.02;5.20;;;;;;;;;;4912848;29;20452;-67
2021/08/25 07:41:08;;;;;;;6.47;4.70;;;;;;;;;;4914405;29;20063;-67
2021/08/25 07:43:37;;;;;;;11.00;4.65;;;;;;;;;;4913648;29;20453;-67
2021/08/25 07:46:04;;;;;;;7.05;4.45;;;;;;;;;;4914256;29;20048;-67
2021/08/25 07:48:32;;;;;;;8.57;4.97;;;;;;;;;;4914138;29;20123;-67
2021/08/25 07:50:59;;;;;;;8.75;4.40;;;;;;;;;;4914196;29;20505;-67
2021/08/25 07:53:27;;;;;;;7.53;4.00;;;;;;;;;;4914892;29;20055;-67
2021/08/25 07:55:54;;;;;;;6.28;4.50;;;;;;;;;;4916337;29;20112;-68
2021/08/25 07:58:21;;;;;;;8.02;4.25;;;;;;;;;;4917629;29;20050;-68
2021/08/25 08:00:50;;;;;;;8.27;4.80;;;;;;;;;;4918056;29;20547;-68
2021/08/25 08:03:17;;;;;;;9.23;4.68;;;;;;;;;;4917842;29;20051;-68
2021/08/25 08:05:46;;;;;;;4.60;4.10;;;;;;;;;;4917677;29;20409;-68
2021/08/25 08:08:14;;;;;;;7.28;4.63;;;;;;;;;;4917853;29;20052;-68
2021/08/25 08:10:41;;;;;;;5.72;4.53;;;;;;;;;;4917166;29;20063;-68
2021/08/25 08:13:08;;;;;;;7.30;5.00;;;;;;;;;;4899000;29;20517;-68
2021/08/25 08:15:36;;;;;;;6.80;4.57;;;;;;;;;;4898908;29;20076;-68
2021/08/25 08:18:10;;;;;;;8.77;4.35;;;;;;;;;;4899034;29;20068;-68
2021/08/25 08:20:38;;;;;;;4.93;4.22;;;;;;;;;;4898931;29;20067;-68
2021/08/25 08:23:06;;;;;;;6.43;4.68;;;;;;;;;;4898451;29;20044;-68
2021/08/25 08:25:33;;;;;;;7.50;4.60;;;;;;;;;;4898176;29;20064;-68
2021/08/25 08:28:00;;;;;;;6.80;4.55;;;;;;;;;;4898362;29;20125;-68
2021/08/25 08:30:28;;;;;;;4.85;4.35;;;;;;;;;;4898442;29;20049;-68
2021/08/25 08:32:55;;;;;;;7.53;4.38;;;;;;;;;;4898158;29;20064;-68
2021/08/25 08:35:24;;;;;;;7.35;4.63;;;;;;;;;;4896636;29;20049;-68
2021/08/25 08:37:51;;;;;;;7.53;4.32;;;;;;;;;;4897972;29;20045;-68
2021/08/25 08:40:18;;;;;;;8.20;4.57;;;;;;;;;;4898228;29;20053;-68
2021/08/25 08:42:46;;;;;;;7.55;4.88;;;;;;;;;;4898316;29;20496;-68
2021/08/25 08:45:13;;;;;;;6.72;4.60;;;;;;;;;;4898305;29;20489;-68
2021/08/25 08:47:41;;;;;;;9.50;5.05;;;;;;;;;;4898609;29;20056;-68
2021/08/25 08:50:08;;;;;;;5.75;4.45;;;;;;;;;;4897662;29;20056;-68
2021/08/25 08:52:37;;;;;;;6.47;4.20;;;;;;;;;;4898159;29;20044;-68
2021/08/25 08:55:04;;;;;;;6.97;4.80;;;;;;;;;;4898589;29;20112;-68
2021/08/25 08:57:31;;;;;;;7.72;5.07;;;;;;;;;;4898387;29;20155;-68
2021/08/25 09:00:00;;;;;;;8.50;4.72;;;;;;;;;;4897972;29;20045;-68
2021/08/25 09:02:42;;;;;;;7.65;4.38;;;;;;;;;;4897720;29;20045;-68
2021/08/25 09:05:19;;;;;;;7.97;4.30;;;;;;;;;;4895458;29;20135;-68
2021/08/25 09:07:56;;;;;;;10.77;4.57;;;;;;;;;;4897190;29;20265;-68
2021/08/25 09:10:25;;;;;;;6.72;4.30;;;;;;;;;;4897473;29;20229;-68
2021/08/25 09:12:52;;;;;;;6.93;4.32;;;;;;;;;;4915545;29;20055;-68
2021/08/25 09:15:20;;;;;;;5.22;4.50;;;;;;;;;;4914998;29;20441;-69
2021/08/25 09:17:48;;;;;;;7.15;4.28;;;;;;;;;;4916322;29;20125;-69
2021/08/25 09:20:15;;;;;;;6.53;5.32;;;;;;;;;;4916510;29;20052;-68
2021/08/25 09:22:43;;;;;;;5.05;4.38;;;;;;;;;;4916517;29;20473;-68
2021/08/25 09:25:31;;;;;;;6.97;4.07;;;;;;;;;;4916305;29;20492;-68
2021/08/25 09:27:58;;;;;;;6.70;4.88;;;;;;;;;;4917864;29;20076;-68
2021/08/25 09:30:25;;;;;;;7.65;4.95;;;;;;;;;;4916154;29;20051;-68
2021/08/25 09:32:52;;;;;;;5.20;3.97;;;;;;;;;;4917095;29;20131;-68
2021/08/25 09:35:20;;;;;;;8.68;4.80;;;;;;;;;;4916477;29;20132;-68
2021/08/25 09:37:52;;;;;;;6.70;4.43;;;;;;;;;;4916013;29;20498;-68
2021/08/25 09:40:21;;;;;;;7.65;4.35;;;;;;;;;;4916630;29;20141;-68
2021/08/25 09:42:49;;;;;;;7.47;4.38;;;;;;;;;;4916467;29;20078;-68
2021/08/25 09:45:17;;;;;;;8.93;4.70;;;;;;;;;;4916500;29;20054;-68
2021/08/25 09:47:48;;;;;;;6.75;4.15;;;;;;;;;;4916379;29;20044;-68
2021/08/25 09:50:16;;;;;;;8.20;4.15;;;;;;;;;;4916611;29;20054;-68
2021/08/25 09:52:44;;;;;;;8.85;4.10;;;;;;;;;;4916135;29;20048;-68
2021/08/25 09:55:12;;;;;;;11.18;4.28;;;;;;;;;;4916689;29;20076;-68
2021/08/25 09:57:41;;;;;;;5.35;3.90;;;;;;;;;;4926458;29;20070;-68
2021/08/25 10:00:10;;;;;;;6.47;3.28;;;;;;;;;;4929671;29;20024;-69
2021/08/25 10:02:40;;;;;;;4.00;3.58;;;;;;;;;;4929271;29;20048;-69
2021/08/25 10:05:24;;;;;;;5.45;4.00;;;;;;;;;;4929241;29;20067;-68
2021/08/25 10:07:52;;;;;;;6.55;4.75;;;;;;;;;;4927154;29;20051;-68
2021/08/25 10:10:19;;;;;;;5.63;4.07;;;;;;;;;;4927893;29;20048;-68
2021/08/25 10:12:51;;;;;;;5.68;4.70;;;;;;;;;;4901401;29;20574;-68
2021/08/25 10:15:40;;;;;;;5.68;4.13;;;;;;;;;;4897330;29;20055;-67
2021/08/25 10:18:21;;;;;;;4.68;4.15;;;;;;;;;;4896558;29;20044;-67
2021/08/25 10:20:49;;;;;;;5.35;4.18;;;;;;;;;;4896362;29;20053;-67
2021/08/25 10:23:16;;;;;;;5.35;4.20;;;;;;;;;;4896205;29;20048;-68
2021/08/25 10:25:58;;;;;;;7.40;4.20;;;;;;;;;;4894862;29;20116;-67
2021/08/25 10:28:27;;;;;;;7.10;4.18;;;;;;;;;;4896371;29;20058;-67
2021/08/25 10:30:55;;;;;;;5.43;3.55;;;;;;;;;;4896387;29;20048;-68
2021/08/25 10:33:23;;;;;;;4.90;3.72;;;;;;;;;;4897646;29;20080;-67
2021/08/25 10:35:50;;;;;;;7.60;3.92;;;;;;;;;;4896394;29;20111;-67
2021/08/25 10:38:18;;;;;;;6.20;3.95;;;;;;;;;;4896723;29;20428;-67
2021/08/25 10:40:46;;;;;;;5.63;3.92;;;;;;;;;;4896768;29;20055;-68
2021/08/25 10:43:28;;;;;;;5.43;4.30;;;;;;;;;;4897748;29;20119;-68
2021/08/25 10:45:57;;;;;;;7.00;4.57;;;;;;;;;;4898457;29;20123;-67
2021/08/25 10:48:43;;;;;;;4.65;3.65;;;;;;;;;;4896581;29;20116;-68
2021/08/25 10:57:44;;;;;;;5.32;3.67;;;;;;;;;;4889174;29;20058;-68
2021/08/25 11:00:12;;;;;;;7.85;4.20;;;;;;;;;;4895952;29;20123;-67
2021/08/25 11:02:42;;;;;;;5.60;4.03;;;;;;;;;;4895960;29;20044;-68
2021/08/25 11:05:10;;;;;;;5.38;3.95;;;;;;;;;;4895814;29;20453;-68
2021/08/25 11:07:44;;;;;;;6.90;4.28;;;;;;;;;;4895848;29;20044;-69
2021/08/25 11:10:11;;;;;;;6.35;3.30;;;;;;;;;;4894392;29;20083;-68
2021/08/25 11:12:45;;;;;;;5.35;3.45;;;;;;;;;;4911188;29;20044;-68
2021/08/25 11:15:13;;;;;;;4.28;3.88;;;;;;;;;;4914819;29;20467;-68
2021/08/25 11:17:42;;;;;;;4.47;4.07;;;;;;;;;;4914669;29;20048;-68
2021/08/25 11:20:10;;;;;;;5.45;4.10;;;;;;;;;;4914249;29;20047;-68
2021/08/25 11:22:38;;;;;;;4.78;4.13;;;;;;;;;;4915278;29;20051;-68
2021/08/25 11:25:07;;;;;;;6.03;4.05;;;;;;;;;;4914498;29;20048;-68
2021/08/25 11:27:35;;;;;;;4.70;3.90;;;;;;;;;;4915603;29;20135;-66
2021/08/25 11:30:14;;;;;;;6.32;4.22;;;;;;;;;;4918292;29;20048;-68
2021/08/25 11:32:46;;;;;;;4.65;3.70;;;;;;;;;;4921292;29;20080;-67
2021/08/25 11:35:15;;;;;;;5.85;4.20;;;;;;;;;;4921296;29;20415;-67
2021/08/25 11:37:45;;;;;;;5.07;3.80;;;;;;;;;;4919385;29;20056;-66
2021/08/25 11:40:13;;;;;;;6.93;4.03;;;;;;;;;;4919756;29;20280;-67
2021/08/25 11:42:40;;;;;;;5.32;4.28;;;;;;;;;;4918868;29;20048;-68
2021/08/25 11:45:15;;;;;;;10.38;4.03;;;;;;;;;;4918136;29;20603;-68
2021/08/25 11:47:48;;;;;;;5.40;3.92;;;;;;;;;;4918088;29;20048;-68
2021/08/25 11:50:16;;;;;;;9.32;4.55;;;;;;;;;;4918412;29;20055;-68
2021/08/25 11:52:44;;;;;;;8.38;4.15;;;;;;;;;;4917734;29;20062;-68
2021/08/25 11:55:11;;;;;;;6.68;4.15;;;;;;;;;;4917515;29;20416;-68
2021/08/25 11:57:46;;;;;;;4.93;4.18;;;;;;;;;;4917234;29;20040;-68
2021/08/25 12:00:14;;;;;;;8.88;4.82;;;;;;;;;;4916125;29;20497;-68
2021/08/25 12:02:53;;;;;;;4.68;4.10;;;;;;;;;;4917576;29;20054;-68
2021/08/25 12:05:21;;;;;;;7.72;4.03;;;;;;;;;;4917265;29;20528;-68
2021/08/25 12:08:03;;;;;;;7.07;5.15;;;;;;;;;;4917688;29;20040;-68
2021/08/25 12:10:31;;;;;;;5.60;4.30;;;;;;;;;;4915902;29;20052;-68
2021/08/25 12:12:58;;;;;;;6.43;4.60;;;;;;;;;;4899468;29;20048;-68
2021/08/25 12:15:44;;;;;;;5.05;4.32;;;;;;;;;;4898839;29;20053;-68
2021/08/25 12:18:13;;;;;;;7.85;4.47;;;;;;;;;;4899143;29;20048;-68
2021/08/25 12:20:41;;;;;;;9.52;4.32;;;;;;;;;;4898695;29;20127;-67
2021/08/25 12:23:09;;;;;;;7.13;4.30;;;;;;;;;;4898679;29;20056;-68
2021/08/25 12:25:38;;;;;;;6.40;4.40;;;;;;;;;;4898886;29;20504;-68
2021/08/25 12:28:05;;;;;;;4.97;4.45;;;;;;;;;;4899094;29;20044;-68
2021/08/25 12:30:36;;;;;;;5.00;4.15;;;;;;;;;;4898606;29;20041;-69
2021/08/25 12:33:06;;;;;;;7.03;4.80;;;;;;;;;;4898268;29;20052;-68
2021/08/25 12:35:35;;;;;;;6.50;4.18;;;;;;;;;;4898959;29;20304;-68
2021/08/25 12:38:02;;;;;;;5.35;4.28;;;;;;;;;;4902805;29;20044;-68
2021/08/25 12:40:30;;;;;;;6.65;4.60;;;;;;;;;;4901151;29;20044;-67
2021/08/25 12:42:58;;;;;;;12.00;4.60;;;;;;;;;;4898212;29;20059;-68
2021/08/25 12:45:26;;;;;;;4.63;4.10;;;;;;;;;;4897823;29;20132;-68
2021/08/25 12:47:54;;;;;;;5.18;4.57;;;;;;;;;;4897987;29;20497;-68
2021/08/25 12:50:22;;;;;;;6.85;4.40;;;;;;;;;;4898228;29;20485;-68
2021/08/25 12:52:52;;;;;;;7.38;4.88;;;;;;;;;;4897828;29;20044;-68
2021/08/25 12:55:20;;;;;;;5.70;4.28;;;;;;;;;;4897942;29;20476;-67
2021/08/25 12:57:48;;;;;;;6.78;4.45;;;;;;;;;;4898054;29;20044;-67
2021/08/25 13:00:15;;;;;;;5.30;4.00;;;;;;;;;;4897890;29;20453;-68
2021/08/25 13:02:43;;;;;;;6.50;4.68;;;;;;;;;;4898106;29;20506;-68
2021/08/25 13:05:14;;;;;;;6.30;4.40;;;;;;;;;;4897586;29;20089;-67
2021/08/25 13:07:44;;;;;;;7.25;4.15;;;;;;;;;;4898333;29;20516;-67
2021/08/25 13:10:13;;;;;;;8.18;4.55;;;;;;;;;;4897967;29;20525;-67
2021/08/25 13:12:41;;;;;;;8.95;4.95;;;;;;;;;;4914081;29;20048;-68
2021/08/25 13:15:08;;;;;;;6.32;4.85;;;;;;;;;;4916380;29;20040;-68
2021/08/25 13:17:36;;;;;;;6.93;4.90;;;;;;;;;;4917038;29;20048;-68
2021/08/25 13:20:03;;;;;;;6.05;4.60;;;;;;;;;;4916124;29;20489;-68
2021/08/25 13:22:30;;;;;;;6.60;4.72;;;;;;;;;;4916073;29;20123;-69
2021/08/25 13:24:58;;;;;;;6.05;4.68;;;;;;;;;;4914940;29;20044;-68
2021/08/25 13:27:26;;;;;;;6.22;4.80;;;;;;;;;;4916236;29;20051;-67
2021/08/25 13:29:54;;;;;;;5.78;4.47;;;;;;;;;;4916057;29;20036;-67
2021/08/25 13:32:21;;;;;;;7.65;4.43;;;;;;;;;;4916258;29;20127;-67
2021/08/25 13:34:48;;;;;;;7.82;4.35;;;;;;;;;;4916433;29;20040;-67
2021/08/25 13:37:15;;;;;;;7.82;4.85;;;;;;;;;;4916474;29;20052;-68
2021/08/25 13:39:43;;;;;;;6.88;4.57;;;;;;;;;;4916247;29;20048;-68
2021/08/25 13:42:10;;;;;;;5.30;4.40;;;;;;;;;;4915842;29;20405;-68
2021/08/25 13:44:39;;;;;;;8.50;4.75;;;;;;;;;;4915848;29;20051;-68
2021/08/25 13:47:06;;;;;;;8.07;4.30;;;;;;;;;;4916240;29;20126;-68
2021/08/25 13:49:33;;;;;;;5.28;4.75;;;;;;;;;;4914851;29;20539;-69
2021/08/25 13:52:01;;;;;;;6.30;4.25;;;;;;;;;;4915276;29;20505;-69
2021/08/25 13:54:28;;;;;;;6.07;4.72;;;;;;;;;;4915818;29;20063;-68
2021/08/25 13:56:55;;;;;;;5.22;4.63;;;;;;;;;;4915612;29;20055;-69
2021/08/25 13:59:23;;;;;;;7.47;4.25;;;;;;;;;;4915438;29;20060;-69
2021/08/25 14:01:52;;;;;;;8.70;4.32;;;;;;;;;;4914447;29;20048;-68
2021/08/25 14:04:19;;;;;;;7.25;5.05;;;;;;;;;;4915128;29;20151;-68
2021/08/25 14:06:47;;;;;;;8.70;4.72;;;;;;;;;;4915464;29;20047;-69
2021/08/25 14:09:14;;;;;;;7.30;4.65;;;;;;;;;;4915614;29;20107;-68
2021/08/25 14:11:41;;;;;;;6.13;4.75;;;;;;;;;;4907290;29;20040;-68
2021/08/25 14:14:09;;;;;;;8.32;4.82;;;;;;;;;;4895994;29;20496;-69
2021/08/25 14:16:37;;;;;;;11.05;5.00;;;;;;;;;;4896447;29;20044;-69
2021/08/25 14:19:06;;;;;;;6.47;5.00;;;;;;;;;;4895001;29;20048;-68
2021/08/25 14:21:33;;;;;;;10.45;4.90;;;;;;;;;;4896592;29;20043;-68
2021/08/25 14:24:00;;;;;;;6.68;4.70;;;;;;;;;;4896076;29;20051;-68
2021/08/25 14:26:27;;;;;;;6.00;5.05;;;;;;;;;;4896242;29;20059;-68
2021/08/25 14:28:55;;;;;;;6.35;4.95;;;;;;;;;;4895680;29;20214;-68
2021/08/25 14:31:22;;;;;;;6.38;4.75;;;;;;;;;;4895983;29;20056;-68
2021/08/25 14:33:49;;;;;;;6.75;5.00;;;;;;;;;;4895672;29;20376;-68
2021/08/25 14:36:18;;;;;;;6.53;5.05;;;;;;;;;;4896133;29;20054;-68
2021/08/25 14:38:46;;;;;;;6.93;5.15;;;;;;;;;;4896026;29;20052;-68
2021/08/25 14:41:13;;;;;;;5.22;4.72;;;;;;;;;;4896060;29;20036;-68
2021/08/25 14:43:40;;;;;;;5.75;4.85;;;;;;;;;;4897125;29;20044;-68
2021/08/25 14:46:07;;;;;;;6.95;4.75;;;;;;;;;;4896235;29;20076;-68
2021/08/25 14:48:35;;;;;;;6.85;4.72;;;;;;;;;;4896266;29;20041;-68
2021/08/25 14:51:02;;;;;;;6.10;4.70;;;;;;;;;;4895572;29;20050;-68
2021/08/25 14:53:31;;;;;;;5.55;4.95;;;;;;;;;;4895807;29;20535;-68
2021/08/25 14:55:58;;;;;;;6.18;4.97;;;;;;;;;;4897333;29;20131;-68
2021/08/25 14:58:26;;;;;;;6.50;4.72;;;;;;;;;;4896587;29;20048;-69
2021/08/25 15:00:53;;;;;;;5.60;4.82;;;;;;;;;;4896306;29;20580;-68
2021/08/25 15:03:24;;;;;;;5.10;4.38;;;;;;;;;;4895684;29;20048;-68
2021/08/25 15:05:52;;;;;;;5.10;4.60;;;;;;;;;;4895296;29;20139;-69
2021/08/25 15:08:19;;;;;;;6.47;4.95;;;;;;;;;;4895619;29;20071;-69
2021/08/25 15:10:48;;;;;;;5.72;5.00;;;;;;;;;;4897047;29;20100;-69
2021/08/25 15:13:16;;;;;;;6.22;4.75;;;;;;;;;;4914359;29;20049;-69
2021/08/25 15:15:43;;;;;;;4.90;4.30;;;;;;;;;;4914715;29;20044;-69
2021/08/25 15:18:10;;;;;;;6.20;4.90;;;;;;;;;;4915301;29;20098;-68
2021/08/25 15:20:38;;;;;;;7.40;4.60;;;;;;;;;;4914473;29;20052;-68
2021/08/25 15:23:05;;;;;;;8.88;4.75;;;;;;;;;;4915451;29;20522;-69
2021/08/25 15:25:33;;;;;;;6.47;4.43;;;;;;;;;;4915702;29;20096;-68
2021/08/25 15:28:02;;;;;;;7.90;4.63;;;;;;;;;;4914496;29;20125;-68
2021/08/25 15:30:29;;;;;;;6.03;4.68;;;;;;;;;;4914218;29;20071;-68
2021/08/25 15:32:56;;;;;;;7.32;4.53;;;;;;;;;;4914725;29;20075;-68
2021/08/25 15:35:24;;;;;;;5.82;5.22;;;;;;;;;;4914044;29;20084;-69
2021/08/25 15:37:51;;;;;;;8.15;4.97;;;;;;;;;;4915028;29;20048;-69
2021/08/25 15:40:19;;;;;;;5.30;4.80;;;;;;;;;;4913201;29;20055;-69
2021/08/25 15:42:46;;;;;;;8.50;5.25;;;;;;;;;;4914519;29;20058;-68
2021/08/25 15:45:15;;;;;;;6.43;4.88;;;;;;;;;;4914122;29;20058;-68
2021/08/25 15:47:42;;;;;;;7.25;5.18;;;;;;;;;;4913574;29;20059;-68
2021/08/25 15:50:10;;;;;;;7.80;5.25;;;;;;;;;;4914751;29;20048;-68
2021/08/25 15:52:37;;;;;;;9.25;5.18;;;;;;;;;;4914805;29;20048;-68
2021/08/25 15:55:05;;;;;;;6.93;4.80;;;;;;;;;;4914975;29;20070;-68
2021/08/25 15:57:32;;;;;;;9.35;5.40;;;;;;;;;;4914921;29;20052;-68
2021/08/25 15:59:59;;;;;;;6.30;4.95;;;;;;;;;;4914947;29;20054;-68
2021/08/25 16:02:28;;;;;;;8.10;4.68;;;;;;;;;;4914940;29;20052;-68
2021/08/25 16:04:57;;;;;;;7.00;5.18;;;;;;;;;;4914517;29;20072;-68
2021/08/25 16:07:24;;;;;;;9.75;5.20;;;;;;;;;;4914616;29;20055;-68
2021/08/25 16:09:52;;;;;;;7.30;5.68;;;;;;;;;;4914133;29;20096;-68
2021/08/25 16:12:19;;;;;;;7.05;5.63;;;;;;;;;;4901498;29;20135;-68
2021/08/25 16:14:46;;;;;;;7.15;5.28;;;;;;;;;;4895961;29;20041;-68
2021/08/25 16:17:13;;;;;;;7.85;5.85;;;;;;;;;;4899444;29;20519;-68
2021/08/25 16:19:42;;;;;;;7.90;5.55;;;;;;;;;;4899162;29;20063;-68
2021/08/25 16:22:10;;;;;;;6.70;5.53;;;;;;;;;;4899811;29;20044;-68
2021/08/25 16:24:38;;;;;;;6.28;5.13;;;;;;;;;;4898936;29;20052;-68
2021/08/25 16:27:06;;;;;;;8.15;5.40;;;;;;;;;;4899470;29;20040;-68
2021/08/25 16:29:33;;;;;;;6.50;5.22;;;;;;;;;;4898228;29;20048;-68
2021/08/25 16:32:01;;;;;;;7.57;5.65;;;;;;;;;;4898696;29;20382;-68
2021/08/25 16:34:28;;;;;;;6.13;4.95;;;;;;;;;;4898457;29;20048;-69
2021/08/25 16:36:57;;;;;;;8.02;5.70;;;;;;;;;;4899010;29;20146;-69
2021/08/25 16:39:24;;;;;;;8.27;6.43;;;;;;;;;;4898220;29;20047;-68
2021/08/25 16:41:51;;;;;;;8.05;5.45;;;;;;;;;;4899144;29;20409;-68
2021/08/25 16:44:18;;;;;;;7.80;5.72;;;;;;;;;;4898749;29;20045;-68
2021/08/25 16:46:46;;;;;;;11.10;6.00;;;;;;;;;;4903439;29;20044;-68
2021/08/25 16:49:13;;;;;;;9.73;6.20;;;;;;;;;;4909982;29;20053;-68
2021/08/25 16:51:40;;;;;;;7.40;5.90;;;;;;;;;;4909968;29;20052;-68
2021/08/25 16:54:09;;;;;;;7.90;5.53;;;;;;;;;;4912411;29;20044;-68
2021/08/25 16:56:37;;;;;;;11.45;5.97;;;;;;;;;;4901728;29;20056;-68
2021/08/25 16:59:05;;;;;;;8.77;5.63;;;;;;;;;;4898920;29;20048;-67
2021/08/25 17:01:33;;;;;;;9.65;6.03;;;;;;;;;;4897960;29;20123;-67
2021/08/25 17:04:00;;;;;;;9.48;6.07;;;;;;;;;;4897841;29;20060;-69
2021/08/25 17:06:27;;;;;;;7.00;5.50;;;;;;;;;;4897448;29;20466;-68
2021/08/25 17:08:56;;;;;;;7.22;6.20;;;;;;;;;;4897891;29;20048;-68
2021/08/25 17:11:25;;;;;;;8.93;5.90;;;;;;;;;;4903241;29;20092;-70
2021/08/25 17:13:52;;;;;;;7.40;5.65;;;;;;;;;;4915622;29;20043;-67
2021/08/25 17:16:20;;;;;;;7.60;6.15;;;;;;;;;;4916316;29;20052;-68
2021/08/25 17:18:47;;;;;;;10.43;6.38;;;;;;;;;;4918914;29;20044;-67
2021/08/25 17:21:15;;;;;;;9.10;5.95;;;;;;;;;;4917704;29;20048;-67
2021/08/25 17:23:42;;;;;;;8.48;6.10;;;;;;;;;;4916512;29;20048;-67
2021/08/25 17:26:11;;;;;;;10.50;5.60;;;;;;;;;;4917235;29;20052;-68
2021/08/25 17:28:39;;;;;;;12.90;6.55;;;;;;;;;;4916587;29;20048;-69
2021/08/25 17:31:06;;;;;;;9.75;7.28;;;;;;;;;;4916819;29;20048;-68
2021/08/25 17:33:34;;;;;;;10.90;6.35;;;;;;;;;;4916588;29;20054;-69
2021/08/25 17:36:01;;;;;;;10.00;6.38;;;;;;;;;;4916361;29;20396;-68
2021/08/25 17:38:28;;;;;;;8.32;5.68;;;;;;;;;;4916626;29;20076;-68
2021/08/25 17:40:56;;;;;;;8.93;5.88;;;;;;;;;;4916942;29;20098;-68
2021/08/25 17:43:23;;;;;;;8.80;5.72;;;;;;;;;;4915060;29;20058;-68
2021/08/25 17:45:52;;;;;;;11.25;6.60;;;;;;;;;;4916163;29;20115;-69
2021/08/25 17:48:19;;;;;;;8.57;7.05;;;;;;;;;;4916158;29;20054;-68
2021/08/25 17:50:46;;;;;;;9.73;5.63;;;;;;;;;;4915841;29;20496;-69
2021/08/25 17:53:14;;;;;;;12.70;5.80;;;;;;;;;;4915096;29;20056;-69
2021/08/25 17:55:41;;;;;;;12.52;6.20;;;;;;;;;;4916313;29;20051;-68
2021/08/25 17:58:08;;;;;;;8.65;6.20;;;;;;;;;;4916295;29;20496;-68
2021/08/25 18:00:37;;;;;;;10.73;6.50;;;;;;;;;;4915878;29;20048;-68
2021/08/25 18:03:06;;;;;;;9.93;6.38;;;;;;;;;;4916205;29;20047;-68
2021/08/25 18:05:34;;;;;;;16.10;6.53;;;;;;;;;;4915512;29;20059;-68
2021/08/25 18:08:02;;;;;;;8.65;6.43;;;;;;;;;;4915731;29;20128;-68
2021/08/25 18:10:31;;;;;;;8.48;6.60;;;;;;;;;;4916593;29;20051;-68
2021/08/25 18:12:58;;;;;;;13.13;7.13;;;;;;;;;;4916263;29;20059;-68
2021/08/25 18:15:25;;;;;;;10.57;7.03;;;;;;;;;;4916162;29;20135;-68
2021/08/25 18:17:53;;;;;;;11.43;7.05;;;;;;;;;;4914778;29;20407;-68
2021/08/25 18:20:21;;;;;;;8.35;6.88;;;;;;;;;;4916155;29;20052;-69
2021/08/25 18:22:49;;;;;;;12.48;6.78;;;;;;;;;;4915858;29;20131;-68
2021/08/25 18:25:16;;;;;;;10.98;6.93;;;;;;;;;;4914717;29;20052;-68
2021/08/25 18:27:43;;;;;;;13.82;7.95;;;;;;;;;;4915288;29;20048;-68
2021/08/25 18:30:11;;;;;;;11.18;7.65;;;;;;;;;;4915901;29;20056;-68
2021/08/25 18:32:38;;;;;;;13.05;7.35;;;;;;;;;;4915884;29;20044;-68
2021/08/25 18:35:06;;;;;;;11.90;7.78;;;;;;;;;;4916449;29;20055;-68
2021/08/25 18:37:35;;;;;;;10.93;7.55;;;;;;;;;;4916338;29;20044;-68
2021/08/25 18:40:03;;;;;;;12.15;7.25;;;;;;;;;;4916072;29;20044;-68
2021/08/25 18:42:31;;;;;;;13.07;7.47;;;;;;;;;;4916869;29;20052;-68
2021/08/25 18:44:58;;;;;;;14.52;6.75;;;;;;;;;;4915449;29;20040;-68
2021/08/25 18:47:25;;;;;;;12.57;6.75;;;;;;;;;;4914302;29;20158;-68
2021/08/25 18:49:53;;;;;;;11.63;7.20;;;;;;;;;;4915360;29;20536;-68
2021/08/25 18:52:20;;;;;;;9.68;7.10;;;;;;;;;;4915165;29;20043;-69
2021/08/25 18:54:48;;;;;;;9.18;6.47;;;;;;;;;;4914858;29;20048;-68
2021/08/25 18:57:16;;;;;;;11.45;6.38;;;;;;;;;;4915087;29;20133;-69
2021/08/25 18:59:46;;;;;;;12.18;6.90;;;;;;;;;;4915292;29;20052;-68
2021/08/25 19:02:14;;;;;;;11.40;7.50;;;;;;;;;;4915176;29;20040;-68
2021/08/25 19:04:41;;;;;;;10.05;6.38;;;;;;;;;;4915084;29;20071;-68
2021/08/25 19:07:08;;;;;;;10.55;6.78;;;;;;;;;;4915543;29;20119;-68
2021/08/25 19:09:36;;;;;;;11.77;6.43;;;;;;;;;;4914101;29;20147;-68
2021/08/25 19:12:05;;;;;;;12.27;7.07;;;;;;;;;;4904244;29;20059;-68
2021/08/25 19:14:32;;;;;;;10.88;6.97;;;;;;;;;;4895974;29;20048;-68
2021/08/25 19:16:59;;;;;;;10.25;6.70;;;;;;;;;;4895882;29;20072;-68
2021/08/25 19:19:27;;;;;;;7.72;6.05;;;;;;;;;;4897185;29;20056;-68
2021/08/25 19:21:54;;;;;;;8.07;6.00;;;;;;;;;;4895836;29;20055;-68
2021/08/25 19:24:21;;;;;;;8.73;6.28;;;;;;;;;;4895921;29;20048;-68
2021/08/25 19:26:49;;;;;;;10.55;6.15;;;;;;;;;;4894288;29;20521;-69
2021/08/25 19:29:17;;;;;;;12.95;6.65;;;;;;;;;;4896003;29;20056;-68
2021/08/25 19:31:45;;;;;;;8.43;6.53;;;;;;;;;;4895719;29;20055;-69
2021/08/25 19:34:12;;;;;;;10.27;6.68;;;;;;;;;;4895536;29;20103;-68
2021/08/25 19:36:41;;;;;;;8.48;6.30;;;;;;;;;;4895478;29;20497;-68
2021/08/25 19:39:08;;;;;;;9.85;6.25;;;;;;;;;;4895308;29;20048;-68
2021/08/25 19:41:36;;;;;;;10.35;6.55;;;;;;;;;;4895274;29;20045;-68
2021/08/25 19:44:04;;;;;;;13.85;7.10;;;;;;;;;;4895324;29;20049;-68
2021/08/25 19:46:32;;;;;;;13.82;6.60;;;;;;;;;;4895502;29;20056;-69